Time;durP1;ratioP1;P1;durP2;ratioP2;P2;SDS_P1;SDS_P2;PMS_P1;PMS_P2;Temp;Humidity;BMP_temperature;BMP_pressure;BME280_temperature;BME280_humidity;BME280_pressure;Samples;Min_cycle;Max_cycle;Signal;HPM_P1;HPM_P2
2023/07/11 00:00:04;;;;;;;5.78;3.40;;;;;;;;;;4979956;28;20424;-64
2023/07/11 00:02:31;;;;;;;5.78;3.50;;;;;;;;;;4979321;28;20416;-64
2023/07/11 00:04:58;;;;;;;7.07;3.40;;;;;;;;;;4980713;28;20488;-64
2023/07/11 00:07:25;;;;;;;5.43;3.27;;;;;;;;;;4982005;28;20451;-64
2023/07/11 00:09:52;;;;;;;7.18;3.38;;;;;;;;;;4980436;28;20998;-63
2023/07/11 00:12:20;;;;;;;4.65;3.35;;;;;;;;;;4978883;28;20486;-64
2023/07/11 00:14:47;;;;;;;6.35;3.20;;;;;;;;;;4979175;28;20420;-64
2023/07/11 00:17:15;;;;;;;5.65;3.17;;;;;;;;;;4979655;28;20427;-64
2023/07/11 00:19:49;;;;;;;4.40;3.00;;;;;;;;;;4982454;28;20501;-64
2023/07/11 00:22:16;;;;;;;5.93;3.30;;;;;;;;;;4981082;28;20486;-64
2023/07/11 00:24:43;;;;;;;8.40;3.20;;;;;;;;;;4974421;28;20432;-63
2023/07/11 00:27:10;;;;;;;4.15;3.03;;;;;;;;;;4984255;28;20426;-64
2023/07/11 00:29:38;;;;;;;7.13;3.30;;;;;;;;;;4986484;28;20428;-64
2023/07/11 00:32:05;;;;;;;6.13;3.33;;;;;;;;;;4984080;28;21210;-64
2023/07/11 00:34:34;;;;;;;7.00;3.13;;;;;;;;;;4984155;28;20954;-63
2023/07/11 00:37:01;;;;;;;5.55;3.33;;;;;;;;;;4983938;28;20488;-64
2023/07/11 00:39:29;;;;;;;4.72;3.05;;;;;;;;;;4984787;28;20486;-64
2023/07/11 00:41:56;;;;;;;7.07;3.28;;;;;;;;;;4984687;28;20414;-64
2023/07/11 00:44:24;;;;;;;5.68;3.50;;;;;;;;;;4984622;28;20458;-64
2023/07/11 00:46:51;;;;;;;4.57;3.08;;;;;;;;;;4987938;28;20513;-64
2023/07/11 00:49:19;;;;;;;5.10;3.17;;;;;;;;;;4992026;28;20449;-64
2023/07/11 00:51:50;;;;;;;6.38;3.50;;;;;;;;;;4985594;28;20842;-64
2023/07/11 00:54:19;;;;;;;6.70;3.22;;;;;;;;;;4980504;28;20426;-64
2023/07/11 00:56:47;;;;;;;5.15;3.08;;;;;;;;;;4990375;28;20850;-64
2023/07/11 00:59:15;;;;;;;5.07;3.00;;;;;;;;;;4986546;28;20430;-63
2023/07/11 01:01:42;;;;;;;6.15;3.20;;;;;;;;;;4981581;28;20422;-63
2023/07/11 01:04:09;;;;;;;6.10;2.90;;;;;;;;;;4986237;28;20414;-63
2023/07/11 01:06:36;;;;;;;6.73;3.00;;;;;;;;;;4986395;28;20470;-64
2023/07/11 01:09:05;;;;;;;4.97;3.00;;;;;;;;;;4982033;28;20490;-63
2023/07/11 01:11:33;;;;;;;5.03;3.15;;;;;;;;;;4982525;28;20439;-64
2023/07/11 01:14:00;;;;;;;4.95;2.90;;;;;;;;;;4981372;28;20416;-63
2023/07/11 01:16:27;;;;;;;4.97;3.35;;;;;;;;;;4982281;28;20490;-64
2023/07/11 01:18:54;;;;;;;6.60;3.07;;;;;;;;;;4982630;28;20499;-62
2023/07/11 01:21:22;;;;;;;5.97;3.05;;;;;;;;;;4986169;28;20854;-64
2023/07/11 01:23:50;;;;;;;5.60;2.88;;;;;;;;;;4982433;28;20459;-64
2023/07/11 01:26:17;;;;;;;5.30;2.80;;;;;;;;;;4981184;28;20423;-63
2023/07/11 01:28:44;;;;;;;6.18;2.78;;;;;;;;;;4987938;28;20891;-64
2023/07/11 01:31:11;;;;;;;5.07;3.10;;;;;;;;;;4981596;28;20420;-63
2023/07/11 01:33:39;;;;;;;7.68;3.22;;;;;;;;;;4980917;28;20781;-64
2023/07/11 01:36:06;;;;;;;6.28;3.00;;;;;;;;;;4982753;28;20430;-64
2023/07/11 01:38:35;;;;;;;4.97;2.92;;;;;;;;;;4982135;28;20424;-64
2023/07/11 01:41:02;;;;;;;4.95;3.00;;;;;;;;;;4985275;28;20476;-64
2023/07/11 01:43:29;;;;;;;4.88;2.80;;;;;;;;;;4984799;28;20424;-64
2023/07/11 01:45:56;;;;;;;4.97;2.55;;;;;;;;;;4988839;28;20455;-64
2023/07/11 01:48:23;;;;;;;4.70;3.00;;;;;;;;;;4982172;28;20535;-64
2023/07/11 01:50:50;;;;;;;5.00;2.97;;;;;;;;;;4981920;28;20428;-64
2023/07/11 01:53:17;;;;;;;4.63;2.67;;;;;;;;;;4984931;28;20488;-64
2023/07/11 01:55:55;;;;;;;5.30;2.70;;;;;;;;;;4980949;28;20777;-64
2023/07/11 01:58:22;;;;;;;4.82;2.55;;;;;;;;;;4984855;28;20427;-64
2023/07/11 02:00:49;;;;;;;6.07;2.97;;;;;;;;;;4982798;28;20457;-64
2023/07/11 02:03:16;;;;;;;6.50;2.80;;;;;;;;;;4982972;28;20414;-64
2023/07/11 02:05:43;;;;;;;7.00;3.03;;;;;;;;;;4982642;28;20416;-64
2023/07/11 02:08:10;;;;;;;4.63;2.50;;;;;;;;;;4983082;28;20854;-64
2023/07/11 02:10:37;;;;;;;4.72;2.85;;;;;;;;;;4983163;28;20434;-64
2023/07/11 02:13:05;;;;;;;4.93;2.60;;;;;;;;;;4979381;28;20430;-64
2023/07/11 02:15:32;;;;;;;5.05;2.80;;;;;;;;;;4983426;28;20827;-64
2023/07/11 02:17:59;;;;;;;5.43;2.80;;;;;;;;;;4980985;28;20510;-64
2023/07/11 02:20:27;;;;;;;5.75;2.50;;;;;;;;;;4981678;28;20420;-64
2023/07/11 02:22:54;;;;;;;5.85;2.80;;;;;;;;;;4983026;28;20418;-65
2023/07/11 02:25:21;;;;;;;5.47;2.67;;;;;;;;;;4983102;28;20422;-64
2023/07/11 02:27:48;;;;;;;4.88;2.60;;;;;;;;;;4985088;28;20472;-64
2023/07/11 02:30:16;;;;;;;6.40;2.90;;;;;;;;;;4980937;28;20817;-64
2023/07/11 02:32:43;;;;;;;5.13;2.80;;;;;;;;;;4980861;28;20506;-64
2023/07/11 02:35:10;;;;;;;6.10;2.60;;;;;;;;;;4980497;28;20428;-64
2023/07/11 02:37:37;;;;;;;5.13;2.47;;;;;;;;;;4981904;28;20418;-64
2023/07/11 02:40:05;;;;;;;5.72;2.50;;;;;;;;;;4982954;28;20966;-64
2023/07/11 02:42:32;;;;;;;4.77;2.70;;;;;;;;;;4982377;28;20831;-64
2023/07/11 02:44:59;;;;;;;7.20;2.58;;;;;;;;;;4982377;28;20414;-64
2023/07/11 02:47:27;;;;;;;3.43;2.50;;;;;;;;;;4980667;28;20466;-64
2023/07/11 02:49:54;;;;;;;5.70;2.60;;;;;;;;;;4982303;28;20458;-64
2023/07/11 02:52:21;;;;;;;4.07;2.40;;;;;;;;;;4979519;28;20434;-64
2023/07/11 02:54:49;;;;;;;5.10;2.55;;;;;;;;;;4983798;28;20429;-64
2023/07/11 02:57:16;;;;;;;6.30;2.77;;;;;;;;;;4980907;28;20444;-64
2023/07/11 02:59:43;;;;;;;5.38;2.47;;;;;;;;;;4982241;28;20915;-64
2023/07/11 03:02:10;;;;;;;6.25;2.50;;;;;;;;;;4984325;28;20475;-64
2023/07/11 03:04:38;;;;;;;5.88;2.58;;;;;;;;;;4982830;28;20418;-64
2023/07/11 03:07:05;;;;;;;5.22;2.50;;;;;;;;;;4980248;28;20893;-64
2023/07/11 03:09:33;;;;;;;5.47;2.53;;;;;;;;;;4980795;28;20424;-64
2023/07/11 03:12:00;;;;;;;5.03;2.42;;;;;;;;;;4982704;28;20461;-64
2023/07/11 03:14:27;;;;;;;4.75;2.60;;;;;;;;;;4982213;28;20477;-64
2023/07/11 03:16:54;;;;;;;6.37;2.70;;;;;;;;;;4971447;28;20854;-64
2023/07/11 03:19:21;;;;;;;4.95;2.50;;;;;;;;;;4971413;28;20449;-64
2023/07/11 03:21:50;;;;;;;5.63;2.80;;;;;;;;;;4981453;28;20420;-64
2023/07/11 03:24:17;;;;;;;4.87;2.63;;;;;;;;;;4981557;28;20440;-64
2023/07/11 03:26:45;;;;;;;7.32;2.92;;;;;;;;;;4982739;28;20421;-64
2023/07/11 03:29:13;;;;;;;5.47;2.50;;;;;;;;;;4983943;28;20434;-64
2023/07/11 03:31:40;;;;;;;5.32;2.83;;;;;;;;;;4981406;28;20697;-64
2023/07/11 03:34:07;;;;;;;6.95;2.78;;;;;;;;;;4971440;28;20428;-64
2023/07/11 03:36:34;;;;;;;5.37;2.97;;;;;;;;;;4982498;28;20430;-64
2023/07/11 03:39:03;;;;;;;6.20;2.63;;;;;;;;;;4979379;28;20817;-64
2023/07/11 03:41:30;;;;;;;4.47;2.70;;;;;;;;;;4979756;28;20458;-64
2023/07/11 03:43:57;;;;;;;4.53;2.70;;;;;;;;;;4981822;28;20417;-64
2023/07/11 03:46:24;;;;;;;4.35;2.38;;;;;;;;;;4980040;28;20428;-64
2023/07/11 03:48:52;;;;;;;2.85;2.35;;;;;;;;;;4979997;28;20424;-64
2023/07/11 03:51:19;;;;;;;5.65;2.53;;;;;;;;;;4984163;28;20427;-64
2023/07/11 03:53:45;;;;;;;6.22;2.35;;;;;;;;;;4980568;28;20490;-64
2023/07/11 03:56:14;;;;;;;3.50;2.40;;;;;;;;;;4978913;28;20964;-64
2023/07/11 03:58:41;;;;;;;5.38;2.25;;;;;;;;;;4980122;28;20417;-66
2023/07/11 04:01:08;;;;;;;5.03;2.27;;;;;;;;;;4979769;28;20455;-62
2023/07/11 04:03:35;;;;;;;6.32;2.40;;;;;;;;;;4979157;28;20759;-60
2023/07/11 04:06:02;;;;;;;6.32;2.63;;;;;;;;;;4982649;28;20493;-60
2023/07/11 04:08:29;;;;;;;5.75;2.35;;;;;;;;;;4979245;28;20490;-63
2023/07/11 04:10:56;;;;;;;6.20;2.50;;;;;;;;;;4981413;28;20430;-63
2023/07/11 04:13:25;;;;;;;5.85;2.72;;;;;;;;;;4981300;28;20430;-62
2023/07/11 04:15:52;;;;;;;4.63;2.40;;;;;;;;;;4979673;28;20416;-63
2023/07/11 04:18:19;;;;;;;5.75;2.72;;;;;;;;;;4979609;28;20533;-63
2023/07/11 04:20:46;;;;;;;4.43;2.58;;;;;;;;;;4985314;28;20422;-63
2023/07/11 04:23:14;;;;;;;6.53;2.80;;;;;;;;;;4984386;28;20414;-63
2023/07/11 04:25:41;;;;;;;5.00;2.60;;;;;;;;;;4985212;28;20461;-64
2023/07/11 04:28:08;;;;;;;3.87;2.63;;;;;;;;;;4984565;28;20473;-63
2023/07/11 04:30:37;;;;;;;6.10;3.35;;;;;;;;;;4981626;28;20426;-63
2023/07/11 04:33:04;;;;;;;6.05;2.58;;;;;;;;;;4970217;28;20443;-63
2023/07/11 04:35:32;;;;;;;6.83;2.73;;;;;;;;;;4970145;28;20432;-63
2023/07/11 04:37:59;;;;;;;6.20;2.63;;;;;;;;;;4970793;28;20427;-63
2023/07/11 04:40:26;;;;;;;6.22;2.67;;;;;;;;;;4982250;28;20428;-63
2023/07/11 04:42:53;;;;;;;5.15;2.60;;;;;;;;;;4975941;28;20462;-64
2023/07/11 04:45:20;;;;;;;4.47;2.70;;;;;;;;;;4985622;28;20425;-63
2023/07/11 04:47:48;;;;;;;3.88;2.47;;;;;;;;;;4981758;28;20849;-63
2023/07/11 04:50:15;;;;;;;5.40;2.73;;;;;;;;;;4983235;28;20557;-64
2023/07/11 04:52:43;;;;;;;4.50;2.50;;;;;;;;;;4978898;28;20430;-63
2023/07/11 04:55:10;;;;;;;5.93;2.70;;;;;;;;;;4978536;28;20502;-63
2023/07/11 04:57:37;;;;;;;5.53;2.50;;;;;;;;;;4983108;28;20434;-63
2023/07/11 05:00:05;;;;;;;5.40;2.70;;;;;;;;;;4982903;28;20414;-62
2023/07/11 05:02:32;;;;;;;4.18;2.40;;;;;;;;;;4980200;28;20435;-62
2023/07/11 05:05:01;;;;;;;4.50;2.40;;;;;;;;;;4981969;28;20553;-63
2023/07/11 05:07:28;;;;;;;5.38;2.70;;;;;;;;;;4984038;28;20439;-63
2023/07/11 05:09:55;;;;;;;5.78;2.50;;;;;;;;;;4984798;28;20430;-63
2023/07/11 05:12:22;;;;;;;3.60;2.63;;;;;;;;;;4981510;28;20534;-63
2023/07/11 05:14:49;;;;;;;5.73;2.60;;;;;;;;;;4985912;28;20433;-63
2023/07/11 05:17:16;;;;;;;4.55;2.42;;;;;;;;;;4983989;28;20428;-64
2023/07/11 05:19:43;;;;;;;4.80;2.67;;;;;;;;;;4973692;28;20909;-64
2023/07/11 05:22:12;;;;;;;5.05;2.60;;;;;;;;;;4984632;28;20423;-64
2023/07/11 05:24:39;;;;;;;5.20;2.45;;;;;;;;;;4986057;28;20457;-65
2023/07/11 05:27:06;;;;;;;4.38;2.88;;;;;;;;;;4986330;28;20977;-64
2023/07/11 05:29:33;;;;;;;6.28;2.63;;;;;;;;;;4991333;28;20432;-64
2023/07/11 05:32:00;;;;;;;4.32;2.50;;;;;;;;;;4988533;28;20768;-65
2023/07/11 05:34:27;;;;;;;3.83;2.50;;;;;;;;;;4991031;28;20883;-65
2023/07/11 05:36:54;;;;;;;4.03;2.53;;;;;;;;;;4981343;28;20483;-64
2023/07/11 05:39:23;;;;;;;6.30;2.43;;;;;;;;;;4982351;28;20480;-64
2023/07/11 05:41:52;;;;;;;3.83;2.58;;;;;;;;;;4982962;28;20422;-63
2023/07/11 05:44:19;;;;;;;5.23;2.60;;;;;;;;;;4982044;28;20426;-63
2023/07/11 05:46:46;;;;;;;5.03;2.58;;;;;;;;;;4984501;28;20428;-63
2023/07/11 05:49:13;;;;;;;5.00;2.60;;;;;;;;;;4984539;28;20736;-63
2023/07/11 05:51:40;;;;;;;4.30;2.40;;;;;;;;;;4985172;28;20485;-63
2023/07/11 05:54:07;;;;;;;4.97;2.55;;;;;;;;;;4980941;28;20431;-64
2023/07/11 05:56:35;;;;;;;4.25;2.30;;;;;;;;;;4985253;28;20484;-63
2023/07/11 05:59:02;;;;;;;5.22;2.75;;;;;;;;;;4988634;28;20757;-63
2023/07/11 06:01:30;;;;;;;4.47;2.35;;;;;;;;;;4986867;28;20432;-62
2023/07/11 06:04:05;;;;;;;5.38;2.50;;;;;;;;;;4987103;28;20454;-62
2023/07/11 06:06:34;;;;;;;3.65;2.47;;;;;;;;;;4982468;28;20479;-62
2023/07/11 06:09:01;;;;;;;3.38;2.28;;;;;;;;;;4988055;28;20509;-63
2023/07/11 06:11:28;;;;;;;5.90;2.50;;;;;;;;;;4981821;28;20940;-62
2023/07/11 06:13:56;;;;;;;5.03;2.50;;;;;;;;;;4980106;28;21223;-61
2023/07/11 06:16:23;;;;;;;5.13;2.50;;;;;;;;;;4972121;28;20912;-62
2023/07/11 06:18:53;;;;;;;5.88;2.50;;;;;;;;;;4978084;28;20465;-61
2023/07/11 06:21:20;;;;;;;3.67;2.17;;;;;;;;;;4978442;28;20428;-62
2023/07/11 06:23:47;;;;;;;4.78;2.72;;;;;;;;;;4981032;28;20964;-63
2023/07/11 06:26:15;;;;;;;3.60;2.35;;;;;;;;;;4988184;28;20501;-64
2023/07/11 06:28:42;;;;;;;4.15;2.40;;;;;;;;;;4986715;28;20432;-65
2023/07/11 06:31:12;;;;;;;5.22;2.63;;;;;;;;;;4979223;28;20428;-63
2023/07/11 06:33:39;;;;;;;4.30;2.30;;;;;;;;;;4986703;28;20992;-63
2023/07/11 06:36:07;;;;;;;5.10;2.67;;;;;;;;;;4987714;28;20430;-63
2023/07/11 06:38:34;;;;;;;6.35;2.78;;;;;;;;;;4984484;28;20470;-61
2023/07/11 06:41:01;;;;;;;4.78;2.55;;;;;;;;;;4982990;28;20433;-62
2023/07/11 06:43:29;;;;;;;4.43;2.40;;;;;;;;;;4984292;28;20450;-63
2023/07/11 06:45:57;;;;;;;5.90;2.38;;;;;;;;;;4984036;28;20481;-65
2023/07/11 06:48:26;;;;;;;5.20;2.80;;;;;;;;;;4982341;28;21249;-63
2023/07/11 06:50:55;;;;;;;5.72;2.80;;;;;;;;;;4983600;28;20426;-66
2023/07/11 06:53:22;;;;;;;6.00;2.40;;;;;;;;;;4984285;28;20430;-62
2023/07/11 06:55:50;;;;;;;4.45;2.35;;;;;;;;;;4987121;28;20422;-63
2023/07/11 06:58:17;;;;;;;3.58;2.58;;;;;;;;;;4985037;28;20486;-62
2023/07/11 07:00:44;;;;;;;5.63;2.70;;;;;;;;;;4982109;28;20485;-63
2023/07/11 07:03:12;;;;;;;4.88;2.80;;;;;;;;;;4980695;28;20483;-63
2023/07/11 07:05:40;;;;;;;5.15;2.67;;;;;;;;;;4979676;28;20423;-63
2023/07/11 07:08:07;;;;;;;4.78;2.47;;;;;;;;;;4981153;28;20556;-63
2023/07/11 07:10:34;;;;;;;4.07;2.40;;;;;;;;;;4978334;28;20499;-64
2023/07/11 07:13:01;;;;;;;3.80;2.60;;;;;;;;;;4980941;28;20418;-64
2023/07/11 07:15:28;;;;;;;4.60;2.70;;;;;;;;;;4976611;28;20845;-63
2023/07/11 07:17:55;;;;;;;7.67;2.60;;;;;;;;;;4982004;28;20429;-63
2023/07/11 07:20:22;;;;;;;5.63;2.63;;;;;;;;;;4979700;28;20423;-63
2023/07/11 07:22:50;;;;;;;3.95;2.40;;;;;;;;;;4978864;28;20490;-65
2023/07/11 07:25:17;;;;;;;4.40;2.80;;;;;;;;;;4978089;28;20453;-64
2023/07/11 07:27:44;;;;;;;4.57;2.43;;;;;;;;;;4984196;28;20433;-65
2023/07/11 07:30:12;;;;;;;5.38;2.55;;;;;;;;;;4981673;28;20967;-63
2023/07/11 07:32:39;;;;;;;5.40;2.60;;;;;;;;;;4982049;28;20416;-65
2023/07/11 07:35:06;;;;;;;4.17;2.73;;;;;;;;;;4982664;28;20481;-66
2023/07/11 07:37:35;;;;;;;4.28;2.53;;;;;;;;;;4980173;28;20419;-64
2023/07/11 07:40:04;;;;;;;4.97;2.40;;;;;;;;;;4978591;28;20428;-65
2023/07/11 07:42:31;;;;;;;4.88;2.75;;;;;;;;;;4981831;28;20520;-64
2023/07/11 07:44:58;;;;;;;4.82;2.63;;;;;;;;;;4981612;28;20533;-66
2023/07/11 07:47:25;;;;;;;6.65;2.47;;;;;;;;;;4980869;28;20498;-64
2023/07/11 07:49:52;;;;;;;3.78;2.53;;;;;;;;;;4983479;28;20485;-64
2023/07/11 07:52:19;;;;;;;5.47;2.80;;;;;;;;;;4981577;28;20894;-64
2023/07/11 07:54:46;;;;;;;5.35;2.40;;;;;;;;;;4980402;28;20442;-65
2023/07/11 07:57:14;;;;;;;4.05;2.40;;;;;;;;;;4980607;28;20963;-64
2023/07/11 07:59:41;;;;;;;4.80;2.60;;;;;;;;;;4984778;28;20445;-63
2023/07/11 08:02:09;;;;;;;3.67;2.33;;;;;;;;;;4974749;28;20442;-68
2023/07/11 08:04:36;;;;;;;5.07;2.17;;;;;;;;;;4978226;28;20420;-68
2023/07/11 08:07:04;;;;;;;3.35;2.20;;;;;;;;;;4982066;28;20454;-64
2023/07/11 08:09:31;;;;;;;5.55;2.45;;;;;;;;;;4978694;28;20420;-64
2023/07/11 08:12:05;;;;;;;6.68;2.58;;;;;;;;;;4980275;28;20464;-65
2023/07/11 08:14:35;;;;;;;6.13;2.65;;;;;;;;;;4981294;28;20860;-64
2023/07/11 08:17:02;;;;;;;4.95;2.50;;;;;;;;;;4981603;28;20422;-63
2023/07/11 08:19:29;;;;;;;6.43;2.45;;;;;;;;;;4981627;28;20815;-65
2023/07/11 08:21:56;;;;;;;3.63;2.47;;;;;;;;;;4975314;28;20423;-65
2023/07/11 08:24:23;;;;;;;4.78;2.58;;;;;;;;;;4978671;28;20854;-69
2023/07/11 08:26:50;;;;;;;7.53;2.93;;;;;;;;;;4982795;28;20971;-67
2023/07/11 08:29:17;;;;;;;4.80;2.28;;;;;;;;;;4984171;28;20509;-68
2023/07/11 08:31:46;;;;;;;4.63;2.67;;;;;;;;;;4985287;28;20476;-65
2023/07/11 08:34:13;;;;;;;4.88;2.40;;;;;;;;;;4982287;28;20430;-64
2023/07/11 08:36:40;;;;;;;5.70;2.50;;;;;;;;;;4981089;28;20457;-67
2023/07/11 08:39:07;;;;;;;4.47;2.30;;;;;;;;;;4982039;28;20439;-68
2023/07/11 08:41:39;;;;;;;4.80;2.20;;;;;;;;;;4981696;28;20422;-70
2023/07/11 08:44:10;;;;;;;4.65;2.10;;;;;;;;;;4984003;28;20533;-67
2023/07/11 08:46:40;;;;;;;6.80;2.40;;;;;;;;;;4985863;28;20430;-64
2023/07/11 08:49:09;;;;;;;6.03;2.30;;;;;;;;;;4981228;28;21152;-64
2023/07/11 08:51:37;;;;;;;4.32;2.15;;;;;;;;;;4990804;28;20427;-65
2023/07/11 08:54:06;;;;;;;4.93;2.25;;;;;;;;;;4980488;28;20430;-64
2023/07/11 08:56:36;;;;;;;5.03;2.13;;;;;;;;;;4984224;28;20429;-68
2023/07/11 08:59:06;;;;;;;4.03;2.13;;;;;;;;;;4990114;28;20418;-66
2023/07/11 09:01:37;;;;;;;5.82;2.33;;;;;;;;;;4984388;28;20474;-69
2023/07/11 09:04:06;;;;;;;6.53;2.30;;;;;;;;;;4980500;28;20420;-64
2023/07/11 09:06:37;;;;;;;5.90;2.55;;;;;;;;;;4991225;28;20899;-67
2023/07/11 09:09:04;;;;;;;5.45;2.40;;;;;;;;;;4977707;28;20478;-68
2023/07/11 09:11:35;;;;;;;5.57;2.40;;;;;;;;;;4982703;28;20924;-64
2023/07/11 09:14:10;;;;;;;7.85;2.10;;;;;;;;;;4983280;28;20424;-64
2023/07/11 09:16:41;;;;;;;5.32;2.20;;;;;;;;;;4981698;28;20905;-63
2023/07/11 09:19:14;;;;;;;6.10;2.65;;;;;;;;;;4982871;28;20441;-64
2023/07/11 09:21:47;;;;;;;6.20;2.50;;;;;;;;;;4983399;28;20422;-64
2023/07/11 09:24:20;;;;;;;6.20;2.30;;;;;;;;;;4983222;28;20430;-63
2023/07/11 09:26:48;;;;;;;4.75;2.33;;;;;;;;;;4989002;28;20509;-64
2023/07/11 09:29:16;;;;;;;5.87;2.47;;;;;;;;;;4982952;28;20423;-63
2023/07/11 09:31:46;;;;;;;5.97;2.53;;;;;;;;;;4983767;28;20428;-63
2023/07/11 09:34:17;;;;;;;5.07;2.53;;;;;;;;;;4981073;28;20432;-63
2023/07/11 09:36:47;;;;;;;6.32;2.50;;;;;;;;;;4985842;28;20488;-63
2023/07/11 09:39:17;;;;;;;7.82;2.50;;;;;;;;;;4981161;28;20420;-63
2023/07/11 09:41:47;;;;;;;5.18;2.53;;;;;;;;;;4983332;28;20478;-62
2023/07/11 09:44:14;;;;;;;6.00;2.50;;;;;;;;;;4979610;28;20424;-65
2023/07/11 09:46:41;;;;;;;7.50;2.65;;;;;;;;;;4988195;28;20422;-68
2023/07/11 09:49:09;;;;;;;5.50;2.55;;;;;;;;;;4980868;28;20430;-64
2023/07/11 09:51:38;;;;;;;6.88;2.60;;;;;;;;;;4980700;28;20416;-63
2023/07/11 09:54:17;;;;;;;10.77;2.95;;;;;;;;;;4981046;28;20443;-64
2023/07/11 09:56:45;;;;;;;5.22;2.60;;;;;;;;;;4985637;28;20481;-64
2023/07/11 09:59:12;;;;;;;7.20;2.90;;;;;;;;;;4987779;28;20473;-64
2023/07/11 10:01:40;;;;;;;7.78;2.75;;;;;;;;;;4984077;28;20784;-64
2023/07/11 10:04:08;;;;;;;4.53;2.38;;;;;;;;;;4984623;28;20427;-64
2023/07/11 10:06:37;;;;;;;7.57;2.47;;;;;;;;;;4980511;28;20975;-65
2023/07/11 10:09:15;;;;;;;8.05;2.70;;;;;;;;;;4983932;28;20426;-67
2023/07/11 10:11:42;;;;;;;4.40;2.35;;;;;;;;;;4981610;28;20426;-63
2023/07/11 10:14:16;;;;;;;5.75;2.35;;;;;;;;;;4980344;28;20564;-63
2023/07/11 10:16:43;;;;;;;5.78;2.72;;;;;;;;;;4984482;28;20492;-65
2023/07/11 10:19:14;;;;;;;8.38;2.78;;;;;;;;;;4989203;28;20485;-64
2023/07/11 10:21:44;;;;;;;5.90;2.78;;;;;;;;;;4983044;28;20707;-62
2023/07/11 10:24:17;;;;;;;7.22;2.63;;;;;;;;;;4982579;28;20842;-63
2023/07/11 10:26:44;;;;;;;5.75;2.42;;;;;;;;;;4983287;28;20425;-63
2023/07/11 10:29:13;;;;;;;8.48;2.97;;;;;;;;;;4985089;28;20810;-63
2023/07/11 10:31:42;;;;;;;6.43;2.58;;;;;;;;;;4981285;28;20438;-63
2023/07/11 10:34:15;;;;;;;5.88;2.67;;;;;;;;;;4979777;28;20901;-62
2023/07/11 10:36:46;;;;;;;5.18;2.75;;;;;;;;;;4980458;28;20420;-64
2023/07/11 10:39:15;;;;;;;7.22;2.70;;;;;;;;;;4973346;28;20439;-63
2023/07/11 10:41:47;;;;;;;6.25;2.33;;;;;;;;;;4983717;28;20429;-63
2023/07/11 10:44:17;;;;;;;6.38;2.90;;;;;;;;;;4979728;28;20956;-63
2023/07/11 10:46:46;;;;;;;5.63;2.90;;;;;;;;;;4981159;28;20518;-62
2023/07/11 10:49:14;;;;;;;7.40;2.80;;;;;;;;;;4981274;28;20801;-62
2023/07/11 10:51:45;;;;;;;6.53;2.40;;;;;;;;;;4983553;28;20465;-63
2023/07/11 10:54:20;;;;;;;4.23;2.70;;;;;;;;;;4981697;28;20418;-63
2023/07/11 10:56:50;;;;;;;5.20;2.35;;;;;;;;;;4983125;28;20426;-63
2023/07/11 10:59:18;;;;;;;5.70;2.60;;;;;;;;;;4988091;28;20430;-65
2023/07/11 11:01:49;;;;;;;5.93;2.65;;;;;;;;;;4978947;28;20492;-63
2023/07/11 11:04:24;;;;;;;5.53;2.27;;;;;;;;;;4980737;28;20454;-65
2023/07/11 11:06:53;;;;;;;5.53;2.53;;;;;;;;;;4979706;28;20424;-64
2023/07/11 11:09:25;;;;;;;6.50;2.70;;;;;;;;;;4979697;28;20424;-64
2023/07/11 11:11:58;;;;;;;5.78;2.45;;;;;;;;;;4979978;28;20471;-64
2023/07/11 11:14:28;;;;;;;6.13;2.55;;;;;;;;;;4981402;28;20428;-64
2023/07/11 11:17:03;;;;;;;7.00;3.00;;;;;;;;;;4980992;28;20429;-65
2023/07/11 11:19:35;;;;;;;6.57;3.05;;;;;;;;;;4981715;28;20481;-63
2023/07/11 11:22:06;;;;;;;4.93;2.80;;;;;;;;;;4978453;28;20428;-63
2023/07/11 11:24:39;;;;;;;8.77;2.90;;;;;;;;;;4976071;28;20448;-62
2023/07/11 11:27:12;;;;;;;6.85;2.80;;;;;;;;;;4982153;28;20414;-65
2023/07/11 11:29:45;;;;;;;4.07;2.47;;;;;;;;;;4985528;28;21122;-65
2023/07/11 11:32:18;;;;;;;6.28;2.90;;;;;;;;;;4973922;28;20424;-63
2023/07/11 11:34:50;;;;;;;6.28;3.00;;;;;;;;;;4973389;28;20491;-66
2023/07/11 11:37:24;;;;;;;8.25;3.13;;;;;;;;;;4977653;28;20978;-63
2023/07/11 11:39:54;;;;;;;4.95;2.70;;;;;;;;;;4978812;28;20427;-63
2023/07/11 11:42:24;;;;;;;7.70;2.67;;;;;;;;;;4979288;28;20464;-64
2023/07/11 11:44:53;;;;;;;7.50;2.75;;;;;;;;;;4982530;28;20423;-64
2023/07/11 11:47:21;;;;;;;5.45;2.90;;;;;;;;;;4982929;28;20808;-64
2023/07/11 11:49:48;;;;;;;6.35;2.90;;;;;;;;;;4982281;28;20430;-62
2023/07/11 11:52:15;;;;;;;5.18;2.70;;;;;;;;;;4983972;28;20419;-62
2023/07/11 11:54:44;;;;;;;4.73;2.67;;;;;;;;;;4981136;28;20812;-63
2023/07/11 11:57:15;;;;;;;6.10;3.10;;;;;;;;;;4982139;28;20931;-62
2023/07/11 11:59:46;;;;;;;6.25;3.10;;;;;;;;;;4982279;28;20422;-62
2023/07/11 12:02:14;;;;;;;7.43;2.83;;;;;;;;;;4980142;28;20420;-62
2023/07/11 12:04:53;;;;;;;3.88;2.60;;;;;;;;;;4982913;28;20422;-62
2023/07/11 12:07:25;;;;;;;5.60;2.83;;;;;;;;;;4980056;28;20498;-63
2023/07/11 12:10:08;;;;;;;6.82;2.70;;;;;;;;;;4985540;28;20505;-63
2023/07/11 12:12:50;;;;;;;6.93;2.28;;;;;;;;;;4979031;28;20502;-64
2023/07/11 12:15:22;;;;;;;5.38;2.70;;;;;;;;;;4983424;28;20516;-66
2023/07/11 12:17:50;;;;;;;5.63;2.83;;;;;;;;;;4982998;28;20808;-65
2023/07/11 12:20:21;;;;;;;5.45;2.85;;;;;;;;;;4986240;28;20503;-66
2023/07/11 12:23:06;;;;;;;5.00;2.80;;;;;;;;;;4983220;28;20507;-65
2023/07/11 12:25:33;;;;;;;6.10;2.60;;;;;;;;;;4982621;28;20420;-64
2023/07/11 12:28:01;;;;;;;6.03;3.03;;;;;;;;;;4988110;28;20488;-64
2023/07/11 12:30:31;;;;;;;6.03;2.78;;;;;;;;;;4989658;28;20422;-66
2023/07/11 12:32:58;;;;;;;5.72;2.90;;;;;;;;;;4981734;28;20421;-64
2023/07/11 12:35:26;;;;;;;5.82;2.90;;;;;;;;;;4984500;28;20579;-63
2023/07/11 12:38:02;;;;;;;4.57;2.80;;;;;;;;;;4984958;28;20899;-62
2023/07/11 12:40:32;;;;;;;4.35;3.03;;;;;;;;;;4984143;28;20484;-62
2023/07/11 12:43:01;;;;;;;4.93;3.03;;;;;;;;;;4982627;28;20449;-64
2023/07/11 12:45:34;;;;;;;4.95;3.17;;;;;;;;;;4987084;28;20425;-61
2023/07/11 12:48:06;;;;;;;5.88;3.10;;;;;;;;;;4980225;28;20437;-62
2023/07/11 12:50:38;;;;;;;4.78;3.08;;;;;;;;;;4984800;28;20778;-62
2023/07/11 12:53:06;;;;;;;4.82;3.00;;;;;;;;;;4985695;28;20459;-62
2023/07/11 12:55:33;;;;;;;5.70;2.93;;;;;;;;;;4981721;28;20905;-62
2023/07/11 12:58:00;;;;;;;6.13;3.30;;;;;;;;;;4986278;28;20426;-62
2023/07/11 13:00:28;;;;;;;5.80;3.17;;;;;;;;;;4985815;28;20427;-62
2023/07/11 13:02:57;;;;;;;5.88;3.20;;;;;;;;;;4985296;28;20422;-63
2023/07/11 13:05:25;;;;;;;7.68;3.25;;;;;;;;;;4981742;28;20420;-68
2023/07/11 13:07:52;;;;;;;6.78;2.90;;;;;;;;;;4985778;28;20909;-64
2023/07/11 13:10:21;;;;;;;4.20;2.90;;;;;;;;;;4981610;28;20492;-63
2023/07/11 13:12:48;;;;;;;5.05;3.00;;;;;;;;;;4988848;28;20422;-67
2023/07/11 13:15:16;;;;;;;4.93;3.20;;;;;;;;;;4988564;28;20514;-65
2023/07/11 13:17:45;;;;;;;4.97;2.97;;;;;;;;;;4987599;28;20457;-68
2023/07/11 13:20:17;;;;;;;4.57;2.95;;;;;;;;;;4987306;28;20905;-64
2023/07/11 13:22:46;;;;;;;5.60;3.20;;;;;;;;;;4987200;28;20485;-63
2023/07/11 13:25:15;;;;;;;3.78;3.03;;;;;;;;;;4985418;28;20507;-65
2023/07/11 13:27:43;;;;;;;5.03;3.10;;;;;;;;;;4989145;28;20883;-64
2023/07/11 13:30:20;;;;;;;3.83;3.15;;;;;;;;;;4983850;28;20492;-65
2023/07/11 13:32:53;;;;;;;5.28;3.40;;;;;;;;;;4984688;28;20419;-65
2023/07/11 13:35:20;;;;;;;5.53;3.20;;;;;;;;;;4979699;28;20426;-64
2023/07/11 13:37:50;;;;;;;4.85;3.20;;;;;;;;;;4989175;28;20433;-63
2023/07/11 13:40:36;;;;;;;6.88;3.42;;;;;;;;;;4985215;28;20509;-62
2023/07/11 13:43:03;;;;;;;6.72;3.25;;;;;;;;;;4983296;28;20418;-62
2023/07/11 13:45:34;;;;;;;6.97;3.55;;;;;;;;;;4984551;28;20789;-63
2023/07/11 13:48:01;;;;;;;5.82;3.30;;;;;;;;;;4981670;28;20423;-63
2023/07/11 13:50:30;;;;;;;7.03;3.97;;;;;;;;;;4984214;28;20418;-63
2023/07/11 13:53:02;;;;;;;5.68;3.22;;;;;;;;;;4984804;28;20426;-63
2023/07/11 13:55:39;;;;;;;6.78;3.40;;;;;;;;;;4976406;28;20436;-63
2023/07/11 13:58:06;;;;;;;5.55;3.53;;;;;;;;;;4988754;28;20419;-63
2023/07/11 14:00:33;;;;;;;5.38;3.40;;;;;;;;;;4983383;28;20503;-63
2023/07/11 14:03:00;;;;;;;4.90;3.33;;;;;;;;;;4980810;28;20893;-63
2023/07/11 14:05:28;;;;;;;5.82;3.45;;;;;;;;;;4982523;28;20465;-64
2023/07/11 14:07:57;;;;;;;5.30;3.60;;;;;;;;;;4986842;28;20422;-65
2023/07/11 14:10:26;;;;;;;5.78;3.65;;;;;;;;;;4981179;28;20416;-64
2023/07/11 14:12:54;;;;;;;6.40;3.60;;;;;;;;;;4980302;28;21080;-65
2023/07/11 14:15:22;;;;;;;7.68;3.50;;;;;;;;;;4983095;28;20903;-64
2023/07/11 14:17:50;;;;;;;5.43;3.60;;;;;;;;;;4982882;28;20418;-64
2023/07/11 14:20:17;;;;;;;6.47;3.77;;;;;;;;;;4980841;28;20424;-62
2023/07/11 14:22:45;;;;;;;6.05;3.58;;;;;;;;;;4981577;28;20418;-63
2023/07/11 14:25:15;;;;;;;6.60;4.13;;;;;;;;;;4983196;28;20428;-65
2023/07/11 14:27:44;;;;;;;5.82;3.35;;;;;;;;;;4985179;28;20490;-64
2023/07/11 14:30:11;;;;;;;6.20;4.10;;;;;;;;;;4982732;28;20965;-64
2023/07/11 14:32:38;;;;;;;6.80;3.92;;;;;;;;;;4985972;28;20434;-64
2023/07/11 14:35:07;;;;;;;6.80;3.78;;;;;;;;;;4980821;28;20483;-64
2023/07/11 14:37:34;;;;;;;6.88;3.80;;;;;;;;;;4982853;28;20438;-65
2023/07/11 14:40:01;;;;;;;8.40;4.25;;;;;;;;;;4987970;28;20425;-65
2023/07/11 14:42:29;;;;;;;5.63;3.80;;;;;;;;;;4981490;28;20909;-64
2023/07/11 14:44:58;;;;;;;5.50;3.90;;;;;;;;;;4982616;28;20431;-64
2023/07/11 14:47:25;;;;;;;4.88;3.83;;;;;;;;;;4984782;28;20442;-63
2023/07/11 14:49:52;;;;;;;6.07;3.83;;;;;;;;;;4979423;28;20444;-63